Station: Keith West

  Atmospheric Gas Attenuation - ITU Rec 676-11   --------------- db/100km ---------------
Date Time Temp RH % AH g/m3 Dew Point Wind Direction Speed kph Gust kph Barometer mB Rainfall Since 9am 24GHz 47GHz 76GHz 122GHz 134GHz 241GHz
24 18:50 39.9 17 19 1013.1 0
24 18:40 40.2 26 30 1013.1 0
24 18:30 40.8 22 30 1000.2 0
24 18:20 41 20 26 1013.1 0
24 18:10 41.2 24 26 1013.1 0
24 18:00 41.9 17 30 1000 0
24 17:50 43.7 24 26 1013.1 0
24 17:40 41.9 19 22 1013.1 0
24 17:30 41.8 19 32 1000.3 0
24 17:20 42.2 19 24 1013.1 0
24 17:10 41.9 19 20 1013.1 0
24 17:00 42 19 30 1000.7 0
24 16:50 41.9 9 13 1013.1 0
24 16:40 43.5 26 32 1013.1 0
24 16:30 44.6 20 35 1000.9 0
24 16:20 42.1 24 30 1013.1 0
24 16:10 42.9 17 20 1013.1 0
24 16:00 42.8 20 39 1001.3 0
24 15:50 42.6 13 20 1013.1 0
24 15:40 41.9 20 26 1013.1 0
24 15:30 42.6 19 33 1001.9 0
24 15:20 43.2 28 35 1013.1 0
24 15:10 43.3 20 26 1013.1 0
24 15:00 43.2 19 33 1002.4 0
24 14:50 43.2 11 22 1013.1 0
24 14:40 43.8 22 28 1013.1 0
24 14:30 44.3 22 37 1002.9 0
24 14:20 43.4 30 33 1013.1 0
24 14:10 43.3 20 26 1013.1 0
24 14:00 42.6 19 37 1003.4 0
24 13:50 43.3 22 24 1013.1 0
24 13:40 42.8 22 33 1013.1 0
24 13:30 42.4 22 35 1004 0
24 13:20 42.4 28 37 1013.1 0
24 13:10 41.9 26 30 1013.1 0
24 13:00 41.9 24 39 1004.6 0
24 12:50 41.6 20 24 1013.1 0
24 12:40 41.5 30 32 1013.1 0
24 12:30 41.1 24 37 1005.1 0
24 12:20 41.5 19 26 1013.1 0
24 12:10 39.7 22 26 1013.1 0
24 12:00 39.5 26 33 1005.7 0
24 11:50 38.9 22 32 1013.1 0
24 11:40 38 26 32 1013.1 0
24 11:30 37.9 26 37 1006.1 0
24 11:20 37.2 30 33 1013.1 0
24 11:10 37.1 26 32 1013.1 0
24 11:00 37 26 33 1006.4 0
24 10:50 36.9 26 35 1013.1 0
24 10:40 37 26 32 1013.1 0
24 10:30 36.2 26 35 1006.8 0
24 10:20 35.5 19 22 1013.1 0
24 10:10 34.2 26 32 1013.1 0
24 10:00 34.3 26 37 1007.1 0
24 09:50 33.7 24 30 1013.1 0
24 09:40 33.5 37 43 1013.1 0
24 09:30 33.4 30 44 1007.1 0
24 09:20 33.6 28 37 1013.1 0
24 09:10 31.3 24 28 1013.1 0
24 09:00 30.8 22 33 1007.4 0
24 08:50 29.7 22 26 1013.1 0
24 08:40 28.8 20 22 1013.1 0
24 08:30 28.1 19 26 1007.3 0
24 08:20 27.6 20 24 1013.1 0
24 08:10 27.5 19 22 1013.1 0
24 08:00 27.2 19 26 1007.3 0
24 07:50 26.8 19 26 1013.1 0
24 07:40 26.4 20 26 1013.1 0
24 07:30 26 15 24 1007.2 0
24 07:20 25.9 19 22 1013.1 0
24 07:10 25.7 15 17 1013.1 0
24 07:00 25.6 17 20 1007 0
24 06:50 25.6 17 19 1013.1 0
24 06:40 25.4 19 22 1013.1 0
24 06:30 25.5 20 30 1006.8 0
24 06:20 25.6 22 26 1013.1 0
24 06:10 25.2 20 24 1013.1 0
24 06:00 25.2 20 30 1006.4 0
24 05:50 25.2 22 30 1013.1 0
24 05:40 25.2 20 26 1013.1 0
24 05:30 25.1 20 28 1006.2 0
24 05:20 25.1 22 30 1013.1 0
24 04:50 24.8 19 20 1013.1 0
24 04:40 24.4 15 19 1013.1 0
24 04:30 24.4 17 22 1006.3 0
24 04:20 24.7 19 20 1013.1 0
24 04:10 24.7 17 20 1013.1 0
24 04:00 24.7 17 24 1006.4 0
24 03:50 25.1 19 20 1013.1 0
24 03:40 25.2 22 26 1013.1 0
24 03:30 25.2 19 24 1006.4 0
24 03:20 25 17 19 1013.1 0
24 03:10 24.9 19 20 1013.1 0
24 03:00 24.8 20 28 1006.6 0
24 02:50 24.5 17 19 1013.1 0
24 02:40 24.2 17 19 1013.1 0
24 02:30 24.1 12 2.63 -7.1 17 20 1007 0 6.7 15.4 16.3 41.8 24.8 80.9
24 02:20 23.9 33 7.14 6.6 15 19 1013.1 0 16.1 21.1 30.1 78.8 70.2 240.8
24 02:10 23.7 34 7.27 6.9 15 17 1013.1 0 16.3 21.4 30.6 80.1 71.8 246.4
24 02:00 23.5 34 7.19 6.7 13 15 1007.3 0 16.2 21.1 30.2 79.1 70.7 242.7

Last Refresh: 24-Jan-2021 19:04:39

Most of the information presented on this site is sourced from the Bureau of Meteorology.  Copyright in all material sourced from the Bureau of Meteorology resides with the Commonwealth of Australia.